sensor_id;sensor_type;location;lat;lon;timestamp;pressure;altitude;pressure_sealevel;temperature;humidity
68758;BME280;55747;51.998;4.466;2023-03-26T00:02:03;56612.22;;;-144.48;100.00
68758;BME280;55747;51.998;4.466;2023-03-26T00:04:29;56643.25;;;-144.48;100.00
68758;BME280;55747;51.998;4.466;2023-03-26T00:06:57;56612.22;;;-144.48;100.00
68758;BME280;55747;51.998;4.466;2023-03-26T00:09:22;56657.72;;;-144.48;100.00
68758;BME280;55747;51.998;4.466;2023-03-26T00:11:50;56628.78;;;-144.48;100.00
68758;BME280;55747;51.998;4.466;2023-03-26T00:14:15;56647.38;;;-144.48;100.00
68758;BME280;55747;51.998;4.466;2023-03-26T00:16:42;56657.72;;;-144.48;100.00
68758;BME280;55747;51.998;4.466;2023-03-26T00:19:08;56637.03;;;-144.48;100.00
68758;BME280;55747;51.998;4.466;2023-03-26T00:21:34;56641.19;;;-144.48;100.00
68758;BME280;55747;51.998;4.466;2023-03-26T00:24:06;56651.50;;;-144.48;100.00
68758;BME280;55747;51.998;4.466;2023-03-26T00:26:33;56649.44;;;-144.48;100.00
68758;BME280;55747;51.998;4.466;2023-03-26T00:28:59;56641.19;;;-144.48;100.00
68758;BME280;55747;51.998;4.466;2023-03-26T00:31:24;56653.59;;;-144.48;100.00
68758;BME280;55747;51.998;4.466;2023-03-26T00:33:51;56655.66;;;-144.48;100.00
68758;BME280;55747;51.998;4.466;2023-03-26T00:36:21;56632.91;;;-144.48;100.00
68758;BME280;55747;51.998;4.466;2023-03-26T00:38:46;56678.41;;;-144.48;100.00
68758;BME280;55747;51.998;4.466;2023-03-26T00:41:15;56649.44;;;-144.48;100.00
68758;BME280;55747;51.998;4.466;2023-03-26T00:43:48;56624.63;;;-144.48;100.00
68758;BME280;55747;51.998;4.466;2023-03-26T00:46:14;56624.63;;;-144.48;100.00
68758;BME280;55747;51.998;4.466;2023-03-26T00:48:41;56651.50;;;-144.48;100.00
68758;BME280;55747;51.998;4.466;2023-03-26T00:51:07;56647.38;;;-144.48;100.00
68758;BME280;55747;51.998;4.466;2023-03-26T00:53:33;56690.81;;;-144.48;100.00
68758;BME280;55747;51.998;4.466;2023-03-26T00:55:58;56666.00;;;-144.48;100.00
68758;BME280;55747;51.998;4.466;2023-03-26T00:58:25;56670.13;;;-144.48;100.00
68758;BME280;55747;51.998;4.466;2023-03-26T01:00:56;56647.38;;;-144.48;100.00
68758;BME280;55747;51.998;4.466;2023-03-26T01:03:24;56659.78;;;-144.48;100.00
68758;BME280;55747;51.998;4.466;2023-03-26T01:05:52;56643.25;;;-144.48;100.00
68758;BME280;55747;51.998;4.466;2023-03-26T01:08:26;56692.88;;;-144.48;100.00
68758;BME280;55747;51.998;4.466;2023-03-26T01:10:55;56666.00;;;-144.48;100.00
68758;BME280;55747;51.998;4.466;2023-03-26T01:13:29;56659.78;;;-144.48;100.00
68758;BME280;55747;51.998;4.466;2023-03-26T01:15:56;56612.22;;;-144.48;100.00
68758;BME280;55747;51.998;4.466;2023-03-26T01:18:23;56682.53;;;-144.48;100.00
68758;BME280;55747;51.998;4.466;2023-03-26T01:20:53;56647.38;;;-144.48;100.00
68758;BME280;55747;51.998;4.466;2023-03-26T01:23:38;56651.50;;;-144.48;100.00
68758;BME280;55747;51.998;4.466;2023-03-26T01:26:27;56659.78;;;-144.48;100.00
68758;BME280;55747;51.998;4.466;2023-03-26T01:28:58;56674.25;;;-144.48;100.00
68758;BME280;55747;51.998;4.466;2023-03-26T01:31:32;56630.84;;;-144.48;100.00
68758;BME280;55747;51.998;4.466;2023-03-26T01:34:22;56682.53;;;-144.48;100.00
68758;BME280;55747;51.998;4.466;2023-03-26T01:37:28;56620.50;;;-144.48;100.00
68758;BME280;55747;51.998;4.466;2023-03-26T01:39:56;56672.19;;;-144.48;100.00
68758;BME280;55747;51.998;4.466;2023-03-26T01:42:45;56639.13;;;-144.48;100.00
68758;BME280;55747;51.998;4.466;2023-03-26T01:45:15;56657.72;;;-144.48;100.00
68758;BME280;55747;51.998;4.466;2023-03-26T01:47:44;56666.00;;;-144.48;100.00
68758;BME280;55747;51.998;4.466;2023-03-26T01:50:11;56653.59;;;-144.48;100.00
68758;BME280;55747;51.998;4.466;2023-03-26T01:52:36;56641.19;;;-144.48;100.00
68758;BME280;55747;51.998;4.466;2023-03-26T01:55:02;56719.75;;;-144.48;100.00
68758;BME280;55747;51.998;4.466;2023-03-26T01:57:58;56672.19;;;-144.48;100.00
68758;BME280;55747;51.998;4.466;2023-03-26T02:00:31;56634.97;;;-144.48;100.00
68758;BME280;55747;51.998;4.466;2023-03-26T02:03:15;56653.59;;;-144.48;100.00
68758;BME280;55747;51.998;4.466;2023-03-26T02:05:56;56620.50;;;-144.48;100.00
68758;BME280;55747;51.998;4.466;2023-03-26T02:08:37;56697.00;;;-144.48;100.00
68758;BME280;55747;51.998;4.466;2023-03-26T02:11:11;56661.84;;;-144.48;100.00
68758;BME280;55747;51.998;4.466;2023-03-26T02:13:42;56657.72;;;-144.48;100.00
68758;BME280;55747;51.998;4.466;2023-03-26T02:16:10;56628.78;;;-144.48;100.00
68758;BME280;55747;51.998;4.466;2023-03-26T02:18:39;56690.81;;;-144.48;100.00
68758;BME280;55747;51.998;4.466;2023-03-26T02:21:12;56661.84;;;-144.48;100.00
68758;BME280;55747;51.998;4.466;2023-03-26T02:23:40;56666.00;;;-144.48;100.00
68758;BME280;55747;51.998;4.466;2023-03-26T02:26:08;56628.78;;;-144.48;100.00
68758;BME280;55747;51.998;4.466;2023-03-26T02:28:34;56661.84;;;-144.48;100.00
68758;BME280;55747;51.998;4.466;2023-03-26T02:30:59;56657.72;;;-144.48;100.00
68758;BME280;55747;51.998;4.466;2023-03-26T02:33:27;56674.25;;;-144.48;100.00
68758;BME280;55747;51.998;4.466;2023-03-26T02:35:53;56668.06;;;-144.48;100.00
68758;BME280;55747;51.998;4.466;2023-03-26T02:38:18;56694.94;;;-144.48;100.00
68758;BME280;55747;51.998;4.466;2023-03-26T02:40:44;56686.66;;;-144.48;100.00
68758;BME280;55747;51.998;4.466;2023-03-26T02:43:09;56657.72;;;-144.48;100.00
68758;BME280;55747;51.998;4.466;2023-03-26T02:45:34;56676.31;;;-144.48;100.00
68758;BME280;55747;51.998;4.466;2023-03-26T02:48:00;56659.78;;;-144.48;100.00
68758;BME280;55747;51.998;4.466;2023-03-26T02:50:25;56663.91;;;-144.48;100.00
68758;BME280;55747;51.998;4.466;2023-03-26T02:52:51;56663.91;;;-144.48;100.00
68758;BME280;55747;51.998;4.466;2023-03-26T02:55:16;56668.06;;;-144.48;100.00
68758;BME280;55747;51.998;4.466;2023-03-26T02:57:41;56653.59;;;-144.48;100.00
68758;BME280;55747;51.998;4.466;2023-03-26T03:00:08;56641.19;;;-144.48;100.00
68758;BME280;55747;51.998;4.466;2023-03-26T03:02:33;56657.72;;;-144.48;100.00
68758;BME280;55747;51.998;4.466;2023-03-26T03:04:58;56653.59;;;-144.48;100.00
68758;BME280;55747;51.998;4.466;2023-03-26T03:07:26;56639.13;;;-144.48;100.00
68758;BME280;55747;51.998;4.466;2023-03-26T03:09:51;56694.94;;;-144.48;100.00
68758;BME280;55747;51.998;4.466;2023-03-26T03:12:16;56663.91;;;-144.48;100.00
68758;BME280;55747;51.998;4.466;2023-03-26T03:14:42;56651.50;;;-144.48;100.00
68758;BME280;55747;51.998;4.466;2023-03-26T03:17:07;56666.00;;;-144.48;100.00
68758;BME280;55747;51.998;4.466;2023-03-26T03:19:32;56645.31;;;-144.48;100.00
68758;BME280;55747;51.998;4.466;2023-03-26T03:21:57;56647.38;;;-144.48;100.00
68758;BME280;55747;51.998;4.466;2023-03-26T03:24:23;56686.66;;;-144.48;100.00
68758;BME280;55747;51.998;4.466;2023-03-26T03:26:48;56659.78;;;-144.48;100.00
68758;BME280;55747;51.998;4.466;2023-03-26T03:29:14;56701.13;;;-144.48;100.00
68758;BME280;55747;51.998;4.466;2023-03-26T03:31:40;56666.00;;;-144.48;100.00
68758;BME280;55747;51.998;4.466;2023-03-26T03:34:05;56699.06;;;-144.48;100.00
68758;BME280;55747;51.998;4.466;2023-03-26T03:36:31;56659.78;;;-144.48;100.00
68758;BME280;55747;51.998;4.466;2023-03-26T03:38:57;56655.66;;;-144.48;100.00
68758;BME280;55747;51.998;4.466;2023-03-26T03:41:26;56647.38;;;-144.48;100.00
68758;BME280;55747;51.998;4.466;2023-03-26T03:43:52;56674.25;;;-144.48;100.00
68758;BME280;55747;51.998;4.466;2023-03-26T03:46:17;56666.00;;;-144.48;100.00
68758;BME280;55747;51.998;4.466;2023-03-26T03:48:42;56666.00;;;-144.48;100.00
68758;BME280;55747;51.998;4.466;2023-03-26T03:51:12;56686.66;;;-144.48;100.00
68758;BME280;55747;51.998;4.466;2023-03-26T03:53:37;56674.25;;;-144.48;100.00
68758;BME280;55747;51.998;4.466;2023-03-26T03:56:05;56684.59;;;-144.48;100.00
68758;BME280;55747;51.998;4.466;2023-03-26T03:58:34;56688.72;;;-144.48;100.00
68758;BME280;55747;51.998;4.466;2023-03-26T04:01:00;56649.44;;;-144.48;100.00
68758;BME280;55747;51.998;4.466;2023-03-26T04:03:28;56659.78;;;-144.48;100.00
68758;BME280;55747;51.998;4.466;2023-03-26T04:05:54;56649.44;;;-144.48;100.00
68758;BME280;55747;51.998;4.466;2023-03-26T04:08:20;56686.66;;;-144.48;100.00
68758;BME280;55747;51.998;4.466;2023-03-26T04:10:46;56663.91;;;-144.48;100.00
68758;BME280;55747;51.998;4.466;2023-03-26T04:13:13;56651.50;;;-144.48;100.00
68758;BME280;55747;51.998;4.466;2023-03-26T04:15:39;56682.53;;;-144.48;100.00
68758;BME280;55747;51.998;4.466;2023-03-26T04:18:06;56674.25;;;-144.48;100.00
68758;BME280;55747;51.998;4.466;2023-03-26T04:20:35;56680.47;;;-144.48;100.00
68758;BME280;55747;51.998;4.466;2023-03-26T04:23:03;56645.31;;;-144.48;100.00
68758;BME280;55747;51.998;4.466;2023-03-26T04:25:28;56643.25;;;-144.48;100.00
68758;BME280;55747;51.998;4.466;2023-03-26T04:27:54;56655.66;;;-144.48;100.00
68758;BME280;55747;51.998;4.466;2023-03-26T04:30:22;56653.59;;;-144.48;100.00
68758;BME280;55747;51.998;4.466;2023-03-26T04:32:49;56647.38;;;-144.48;100.00
68758;BME280;55747;51.998;4.466;2023-03-26T04:35:16;56699.06;;;-144.48;100.00
68758;BME280;55747;51.998;4.466;2023-03-26T04:37:42;56651.50;;;-144.48;100.00
68758;BME280;55747;51.998;4.466;2023-03-26T04:40:16;56670.13;;;-144.48;100.00
68758;BME280;55747;51.998;4.466;2023-03-26T04:42:42;56672.19;;;-144.48;100.00
68758;BME280;55747;51.998;4.466;2023-03-26T04:45:10;56663.91;;;-144.48;100.00
68758;BME280;55747;51.998;4.466;2023-03-26T04:47:36;56670.13;;;-144.48;100.00
68758;BME280;55747;51.998;4.466;2023-03-26T04:50:07;56678.41;;;-144.48;100.00
68758;BME280;55747;51.998;4.466;2023-03-26T04:52:33;56682.53;;;-144.48;100.00
68758;BME280;55747;51.998;4.466;2023-03-26T04:54:59;56645.31;;;-144.48;100.00
68758;BME280;55747;51.998;4.466;2023-03-26T04:57:30;56630.84;;;-144.48;100.00
68758;BME280;55747;51.998;4.466;2023-03-26T04:59:57;56672.19;;;-144.48;100.00
68758;BME280;55747;51.998;4.466;2023-03-26T05:02:23;56699.06;;;-144.48;100.00
68758;BME280;55747;51.998;4.466;2023-03-26T05:04:49;56659.78;;;-144.48;100.00
68758;BME280;55747;51.998;4.466;2023-03-26T05:07:17;56668.06;;;-144.48;100.00
68758;BME280;55747;51.998;4.466;2023-03-26T05:09:43;56670.13;;;-144.48;100.00
68758;BME280;55747;51.998;4.466;2023-03-26T05:12:08;56666.00;;;-144.48;100.00
68758;BME280;55747;51.998;4.466;2023-03-26T05:14:34;56663.91;;;-144.48;100.00
68758;BME280;55747;51.998;4.466;2023-03-26T05:17:01;56672.19;;;-144.48;100.00
68758;BME280;55747;51.998;4.466;2023-03-26T05:19:30;56661.84;;;-144.48;100.00
68758;BME280;55747;51.998;4.466;2023-03-26T05:21:56;56672.19;;;-144.48;100.00
68758;BME280;55747;51.998;4.466;2023-03-26T05:24:21;56647.38;;;-144.48;100.00
68758;BME280;55747;51.998;4.466;2023-03-26T05:26:49;56684.59;;;-144.48;100.00
68758;BME280;55747;51.998;4.466;2023-03-26T05:29:15;56666.00;;;-144.48;100.00
68758;BME280;55747;51.998;4.466;2023-03-26T05:31:41;56682.53;;;-144.48;100.00
68758;BME280;55747;51.998;4.466;2023-03-26T05:34:06;56686.66;;;-144.48;100.00
68758;BME280;55747;51.998;4.466;2023-03-26T05:36:32;56649.44;;;-144.48;100.00
68758;BME280;55747;51.998;4.466;2023-03-26T05:38:57;56678.41;;;-144.48;100.00
68758;BME280;55747;51.998;4.466;2023-03-26T05:41:22;56641.19;;;-144.48;100.00
68758;BME280;55747;51.998;4.466;2023-03-26T05:43:48;56663.91;;;-144.48;100.00
68758;BME280;55747;51.998;4.466;2023-03-26T05:46:14;56672.19;;;-144.48;100.00
68758;BME280;55747;51.998;4.466;2023-03-26T05:48:39;56672.19;;;-144.48;100.00
68758;BME280;55747;51.998;4.466;2023-03-26T05:51:05;56715.59;;;-144.48;100.00
68758;BME280;55747;51.998;4.466;2023-03-26T05:53:31;56678.41;;;-144.48;100.00
68758;BME280;55747;51.998;4.466;2023-03-26T05:55:57;56684.59;;;-144.48;100.00
68758;BME280;55747;51.998;4.466;2023-03-26T05:58:29;56674.25;;;-144.48;100.00
68758;BME280;55747;51.998;4.466;2023-03-26T06:01:06;56707.34;;;-144.48;100.00
68758;BME280;55747;51.998;4.466;2023-03-26T06:03:34;56647.38;;;-144.48;100.00
68758;BME280;55747;51.998;4.466;2023-03-26T06:05:59;56672.19;;;-144.48;100.00
68758;BME280;55747;51.998;4.466;2023-03-26T06:08:24;56690.81;;;-144.48;100.00
68758;BME280;55747;51.998;4.466;2023-03-26T06:10:57;56674.25;;;-144.48;100.00
68758;BME280;55747;51.998;4.466;2023-03-26T06:13:22;56676.31;;;-144.48;100.00
68758;BME280;55747;51.998;4.466;2023-03-26T06:15:48;56666.00;;;-144.48;100.00
68758;BME280;55747;51.998;4.466;2023-03-26T06:18:13;56647.38;;;-144.48;100.00
68758;BME280;55747;51.998;4.466;2023-03-26T06:20:40;56694.94;;;-144.48;100.00
68758;BME280;55747;51.998;4.466;2023-03-26T06:23:05;56653.59;;;-144.48;100.00
68758;BME280;55747;51.998;4.466;2023-03-26T06:25:31;56653.59;;;-144.48;100.00
68758;BME280;55747;51.998;4.466;2023-03-26T06:27:56;56661.84;;;-144.48;100.00
68758;BME280;55747;51.998;4.466;2023-03-26T06:30:21;56690.81;;;-144.48;100.00
68758;BME280;55747;51.998;4.466;2023-03-26T06:32:47;56668.06;;;-144.48;100.00
68758;BME280;55747;51.998;4.466;2023-03-26T06:35:12;56730.09;;;-144.48;100.00
68758;BME280;55747;51.998;4.466;2023-03-26T06:37:38;56657.72;;;-144.48;100.00
68758;BME280;55747;51.998;4.466;2023-03-26T06:40:04;56659.78;;;-144.48;100.00
68758;BME280;55747;51.998;4.466;2023-03-26T06:42:29;56684.59;;;-144.48;100.00
68758;BME280;55747;51.998;4.466;2023-03-26T06:44:55;56657.72;;;-144.48;100.00
68758;BME280;55747;51.998;4.466;2023-03-26T06:47:20;56666.00;;;-144.48;100.00
68758;BME280;55747;51.998;4.466;2023-03-26T06:49:45;56653.59;;;-144.48;100.00
68758;BME280;55747;51.998;4.466;2023-03-26T06:52:11;56678.41;;;-144.48;100.00
68758;BME280;55747;51.998;4.466;2023-03-26T06:54:37;56649.44;;;-144.48;100.00
68758;BME280;55747;51.998;4.466;2023-03-26T06:57:02;56688.72;;;-144.48;100.00
68758;BME280;55747;51.998;4.466;2023-03-26T06:59:28;56707.34;;;-144.48;100.00
68758;BME280;55747;51.998;4.466;2023-03-26T07:01:53;56639.13;;;-144.48;100.00
68758;BME280;55747;51.998;4.466;2023-03-26T07:04:18;56666.00;;;-144.48;100.00
68758;BME280;55747;51.998;4.466;2023-03-26T07:06:44;56690.81;;;-144.48;100.00
68758;BME280;55747;51.998;4.466;2023-03-26T07:09:10;56655.66;;;-144.48;100.00
68758;BME280;55747;51.998;4.466;2023-03-26T07:11:35;56707.34;;;-144.48;100.00
68758;BME280;55747;51.998;4.466;2023-03-26T07:14:00;56676.31;;;-144.48;100.00
68758;BME280;55747;51.998;4.466;2023-03-26T07:16:26;56680.47;;;-144.48;100.00
68758;BME280;55747;51.998;4.466;2023-03-26T07:18:51;56715.59;;;-144.48;100.00
68758;BME280;55747;51.998;4.466;2023-03-26T07:21:18;56694.94;;;-144.48;100.00
68758;BME280;55747;51.998;4.466;2023-03-26T07:23:46;56701.13;;;-144.48;100.00
68758;BME280;55747;51.998;4.466;2023-03-26T07:26:24;56661.84;;;-144.48;100.00
68758;BME280;55747;51.998;4.466;2023-03-26T07:32:17;56709.41;;;-144.48;100.00
68758;BME280;55747;51.998;4.466;2023-03-26T07:40:07;56721.81;;;-144.48;100.00
68758;BME280;55747;51.998;4.466;2023-03-26T07:42:56;56680.47;;;-144.48;100.00
68758;BME280;55747;51.998;4.466;2023-03-26T07:45:29;56701.13;;;-144.48;100.00
68758;BME280;55747;51.998;4.466;2023-03-26T07:47:58;56705.28;;;-144.48;100.00
68758;BME280;55747;51.998;4.466;2023-03-26T07:50:24;56703.19;;;-144.48;100.00
68758;BME280;55747;51.998;4.466;2023-03-26T07:52:50;56699.06;;;-144.48;100.00
68758;BME280;55747;51.998;4.466;2023-03-26T07:55:16;56686.66;;;-144.48;100.00
68758;BME280;55747;51.998;4.466;2023-03-26T08:00:42;56651.50;;;-144.48;100.00
68758;BME280;55747;51.998;4.466;2023-03-26T08:03:24;56694.94;;;-144.48;100.00
68758;BME280;55747;51.998;4.466;2023-03-26T08:08:44;56678.41;;;-144.48;100.00
68758;BME280;55747;51.998;4.466;2023-03-26T08:11:37;56692.88;;;-144.48;100.00
68758;BME280;55747;51.998;4.466;2023-03-26T08:17:04;56715.59;;;-144.48;100.00
68758;BME280;55747;51.998;4.466;2023-03-26T08:19:37;56634.97;;;-144.48;100.00
68758;BME280;55747;51.998;4.466;2023-03-26T08:22:13;56678.41;;;-144.48;100.00
68758;BME280;55747;51.998;4.466;2023-03-26T08:24:55;56701.13;;;-144.48;100.00
68758;BME280;55747;51.998;4.466;2023-03-26T08:28:11;56703.19;;;-144.48;100.00
68758;BME280;55747;51.998;4.466;2023-03-26T08:30:22;56684.59;;;-144.48;100.00
68758;BME280;55747;51.998;4.466;2023-03-26T08:32:57;56680.47;;;-144.48;100.00
68758;BME280;55747;51.998;4.466;2023-03-26T08:35:24;56701.13;;;-144.48;100.00
68758;BME280;55747;51.998;4.466;2023-03-26T08:37:50;56765.22;;;-144.48;100.00
68758;BME280;55747;51.998;4.466;2023-03-26T09:10:15;56663.91;;;-144.48;100.00
68758;BME280;55747;51.998;4.466;2023-03-26T09:16:14;56670.13;;;-144.48;100.00
68758;BME280;55747;51.998;4.466;2023-03-26T09:19:04;56694.94;;;-144.48;100.00
68758;BME280;55747;51.998;4.466;2023-03-26T09:21:58;56692.88;;;-144.48;100.00
68758;BME280;55747;51.998;4.466;2023-03-26T09:28:05;56682.53;;;-144.48;100.00
68758;BME280;55747;51.998;4.466;2023-03-26T09:33:40;56641.19;;;-144.48;100.00
68758;BME280;55747;51.998;4.466;2023-03-26T09:38:51;56707.34;;;-144.48;100.00
68758;BME280;55747;51.998;4.466;2023-03-26T09:41:39;56713.53;;;-144.48;100.00
68758;BME280;55747;51.998;4.466;2023-03-26T09:44:26;56661.84;;;-144.48;100.00
68758;BME280;55747;51.998;4.466;2023-03-26T09:47:16;56688.72;;;-144.48;100.00
68758;BME280;55747;51.998;4.466;2023-03-26T09:50:12;56723.88;;;-144.48;100.00
68758;BME280;55747;51.998;4.466;2023-03-26T09:52:56;56688.72;;;-144.48;100.00
68758;BME280;55747;51.998;4.466;2023-03-26T09:55:37;56699.06;;;-144.48;100.00
68758;BME280;55747;51.998;4.466;2023-03-26T09:58:48;56668.06;;;-144.48;100.00
68758;BME280;55747;51.998;4.466;2023-03-26T10:01:34;56697.00;;;-144.48;100.00
68758;BME280;55747;51.998;4.466;2023-03-26T10:10:00;56703.19;;;-144.48;100.00
68758;BME280;55747;51.998;4.466;2023-03-26T10:12:38;56723.88;;;-144.48;100.00
68758;BME280;55747;51.998;4.466;2023-03-26T10:15:31;56682.53;;;-144.48;100.00
68758;BME280;55747;51.998;4.466;2023-03-26T10:18:14;56705.28;;;-144.48;100.00
68758;BME280;55747;51.998;4.466;2023-03-26T10:23:26;56688.72;;;-144.48;100.00
68758;BME280;55747;51.998;4.466;2023-03-26T10:34:45;56701.13;;;-144.48;100.00
68758;BME280;55747;51.998;4.466;2023-03-26T10:37:20;56694.94;;;-144.48;100.00
68758;BME280;55747;51.998;4.466;2023-03-26T10:45:35;56690.81;;;-144.48;100.00
68758;BME280;55747;51.998;4.466;2023-03-26T10:48:29;56697.00;;;-144.48;100.00
68758;BME280;55747;51.998;4.466;2023-03-26T10:53:53;56701.13;;;-144.48;100.00
68758;BME280;55747;51.998;4.466;2023-03-26T10:56:38;56663.91;;;-144.48;100.00
68758;BME280;55747;51.998;4.466;2023-03-26T10:59:06;56690.81;;;-144.48;100.00
68758;BME280;55747;51.998;4.466;2023-03-26T11:07:07;56694.94;;;-144.48;100.00
68758;BME280;55747;51.998;4.466;2023-03-26T11:09:54;56715.59;;;-144.48;100.00
68758;BME280;55747;51.998;4.466;2023-03-26T11:15:06;56703.19;;;-144.48;100.00
68758;BME280;55747;51.998;4.466;2023-03-26T11:31:39;56663.91;;;-144.48;100.00
68758;BME280;55747;51.998;4.466;2023-03-26T11:34:14;56715.59;;;-144.48;100.00
68758;BME280;55747;51.998;4.466;2023-03-26T11:36:45;56730.09;;;-144.48;100.00
68758;BME280;55747;51.998;4.466;2023-03-26T11:39:17;56670.13;;;-144.48;100.00
68758;BME280;55747;51.998;4.466;2023-03-26T11:41:45;56709.41;;;-144.48;100.00
68758;BME280;55747;51.998;4.466;2023-03-26T11:44:32;56701.13;;;-144.48;100.00
68758;BME280;55747;51.998;4.466;2023-03-26T11:47:04;56713.53;;;-144.48;100.00
68758;BME280;55747;51.998;4.466;2023-03-26T11:49:36;56715.59;;;-144.48;100.00
68758;BME280;55747;51.998;4.466;2023-03-26T11:52:02;56670.13;;;-144.48;100.00
68758;BME280;55747;51.998;4.466;2023-03-26T11:54:35;56719.75;;;-144.48;100.00
68758;BME280;55747;51.998;4.466;2023-03-26T11:57:05;56715.59;;;-144.48;100.00
68758;BME280;55747;51.998;4.466;2023-03-26T12:00:19;56670.13;;;-144.48;100.00
68758;BME280;55747;51.998;4.466;2023-03-26T12:03:26;56666.00;;;-144.48;100.00
68758;BME280;55747;51.998;4.466;2023-03-26T12:30:20;56694.94;;;-144.48;100.00
68758;BME280;55747;51.998;4.466;2023-03-26T12:33:03;56707.34;;;-144.48;100.00
68758;BME280;55747;51.998;4.466;2023-03-26T12:35:32;56715.59;;;-144.48;100.00
68758;BME280;55747;51.998;4.466;2023-03-26T12:41:16;56719.75;;;-144.48;100.00
68758;BME280;55747;51.998;4.466;2023-03-26T12:43:51;56626.72;;;-144.48;100.00
68758;BME280;55747;51.998;4.466;2023-03-26T12:46:29;56707.34;;;-144.48;100.00
68758;BME280;55747;51.998;4.466;2023-03-26T12:49:16;56690.81;;;-144.48;100.00
68758;BME280;55747;51.998;4.466;2023-03-26T12:51:52;56692.88;;;-144.48;100.00
68758;BME280;55747;51.998;4.466;2023-03-26T12:54:59;56715.59;;;-144.48;100.00
68758;BME280;55747;51.998;4.466;2023-03-26T12:57:35;56688.72;;;-144.48;100.00
68758;BME280;55747;51.998;4.466;2023-03-26T13:02:59;56668.06;;;-144.48;100.00
68758;BME280;55747;51.998;4.466;2023-03-26T13:10:36;56723.88;;;-144.48;100.00
68758;BME280;55747;51.998;4.466;2023-03-26T13:15:58;56674.25;;;-144.48;100.00
68758;BME280;55747;51.998;4.466;2023-03-26T13:21:09;56686.66;;;-144.48;100.00
68758;BME280;55747;51.998;4.466;2023-03-26T13:23:48;56692.88;;;-144.48;100.00
68758;BME280;55747;51.998;4.466;2023-03-26T13:26:42;56676.31;;;-144.48;100.00
68758;BME280;55747;51.998;4.466;2023-03-26T13:34:17;56670.13;;;-144.48;99.54
68758;BME280;55747;51.998;4.466;2023-03-26T13:39:40;56661.84;;;-144.48;96.66
68758;BME280;55747;51.998;4.466;2023-03-26T13:42:31;56672.19;;;-144.48;98.12
68758;BME280;55747;51.998;4.466;2023-03-26T13:45:33;56713.53;;;-144.48;96.76
68758;BME280;55747;51.998;4.466;2023-03-26T13:48:12;56678.41;;;-144.48;96.45
68758;BME280;55747;51.998;4.466;2023-03-26T13:50:43;56674.25;;;-144.48;96.00
68758;BME280;55747;51.998;4.466;2023-03-26T13:53:15;56703.19;;;-144.48;95.38
68758;BME280;55747;51.998;4.466;2023-03-26T13:55:48;56697.00;;;-144.48;92.31
68758;BME280;55747;51.998;4.466;2023-03-26T13:58:31;56690.81;;;-144.48;88.86
68758;BME280;55747;51.998;4.466;2023-03-26T14:01:15;56719.75;;;-144.48;89.02
68758;BME280;55747;51.998;4.466;2023-03-26T14:03:49;56688.72;;;-144.48;89.98
68758;BME280;55747;51.998;4.466;2023-03-26T14:09:20;56666.00;;;-144.48;87.96
68758;BME280;55747;51.998;4.466;2023-03-26T14:12:00;56676.31;;;-144.48;82.73
68758;BME280;55747;51.998;4.466;2023-03-26T14:14:36;56674.25;;;-144.48;76.04
68758;BME280;55747;51.998;4.466;2023-03-26T14:25:24;56634.97;;;-144.48;77.33
68758;BME280;55747;51.998;4.466;2023-03-26T14:30:48;56645.31;;;-144.48;75.37
68758;BME280;55747;51.998;4.466;2023-03-26T14:33:52;56661.84;;;-144.48;78.03
68758;BME280;55747;51.998;4.466;2023-03-26T14:36:42;56653.59;;;-144.48;79.37
68758;BME280;55747;51.998;4.466;2023-03-26T14:41:51;56663.91;;;-144.48;80.00
68758;BME280;55747;51.998;4.466;2023-03-26T14:52:19;56672.19;;;-144.48;78.90
68758;BME280;55747;51.998;4.466;2023-03-26T14:54:52;56684.59;;;-144.48;78.06
68758;BME280;55747;51.998;4.466;2023-03-26T14:57:45;56641.19;;;-144.48;77.17
68758;BME280;55747;51.998;4.466;2023-03-26T15:26:05;56655.66;;;-144.48;79.05
68758;BME280;55747;51.998;4.466;2023-03-26T15:31:36;56661.84;;;-144.48;79.82
68758;BME280;55747;51.998;4.466;2023-03-26T15:34:32;56653.59;;;-144.48;77.09
68758;BME280;55747;51.998;4.466;2023-03-26T15:43:10;56632.91;;;-144.48;77.61
68758;BME280;55747;51.998;4.466;2023-03-26T15:48:57;56628.78;;;-144.48;75.94
68758;BME280;55747;51.998;4.466;2023-03-26T15:51:30;56620.50;;;-144.48;76.22
68758;BME280;55747;51.998;4.466;2023-03-26T15:59:40;56630.84;;;-144.48;73.43
68758;BME280;55747;51.998;4.466;2023-03-26T16:02:15;56618.44;;;-144.48;73.23
68758;BME280;55747;51.998;4.466;2023-03-26T16:05:18;56649.44;;;-144.48;72.19
68758;BME280;55747;51.998;4.466;2023-03-26T16:10:49;56645.31;;;-144.48;69.29
68758;BME280;55747;51.998;4.466;2023-03-26T16:19:06;56639.13;;;-144.48;68.02
68758;BME280;55747;51.998;4.466;2023-03-26T16:21:56;56661.84;;;-144.48;69.85
68758;BME280;55747;51.998;4.466;2023-03-26T16:24:27;56663.91;;;-144.48;69.18
68758;BME280;55747;51.998;4.466;2023-03-26T16:27:41;56637.03;;;-144.48;69.44
68758;BME280;55747;51.998;4.466;2023-03-26T16:32:39;56647.38;;;-144.48;67.33
68758;BME280;55747;51.998;4.466;2023-03-26T16:37:46;56626.72;;;-144.48;69.75
68758;BME280;55747;51.998;4.466;2023-03-26T16:51:02;56672.19;;;-144.48;69.66
68758;BME280;55747;51.998;4.466;2023-03-26T16:53:39;56624.63;;;-144.48;70.23
68758;BME280;55747;51.998;4.466;2023-03-26T16:59:01;56645.31;;;-144.48;72.91
68758;BME280;55747;51.998;4.466;2023-03-26T17:04:04;56624.63;;;-144.48;73.76
68758;BME280;55747;51.998;4.466;2023-03-26T17:09:39;56663.91;;;-144.48;75.67
68758;BME280;55747;51.998;4.466;2023-03-26T17:12:32;56655.66;;;-144.48;74.99
68758;BME280;55747;51.998;4.466;2023-03-26T17:15:10;56666.00;;;-144.48;75.36